Antananarivo, Madagascar
Current Conditions -  °F | °C
As of 2:30 PM on Friday 24 Oct 2014 (Local Time) from FMMI Reporting Station
Broken Clouds Broken Clouds  
Wind Chill: 28°   Ceiling: 2300
Heat Index: 28°   Visibility: 6mi
Dew Point: 16°   Wind: 7mph
Humidity: 48%   Direction: 360°N
Pressure: 30.06"   Gusts: NA
Location:  18.89°S, 47.51°E
Report Text: FMMI 241130Z 36006KT 310V050 9999 BKN023TCU 28/16 Q1018 NOSIG
Loading
Personal Weather Stations






























Interactive Weather Map
Tropical Storm Tracking
New forecast layout! Learn more

10-Day Weather Forecast

Advertisements
Track Severe Weather on mobile